Time;durP1;ratioP1;P1;durP2;ratioP2;P2;SDS_P1;SDS_P2;PMS_P1;PMS_P2;Temp;Humidity;BMP_temperature;BMP_pressure;BME280_temperature;BME280_humidity;BME280_pressure;Samples;Min_cycle;Max_cycle;Signal;HPM_P1;HPM_P2
2021/03/03 00:01:38;;;;;;;6.17;4.75;;;;;;;10.79;56.72;100584.77;1764905;80;21147;-66
2021/03/03 00:04:06;;;;;;;5.58;4.40;;;;;;;10.79;56.69;100590.58;1756250;80;21471;-66
2021/03/03 00:06:34;;;;;;;5.25;4.03;;;;;;;10.79;56.69;100591.91;1755854;80;21218;-67
2021/03/03 00:09:01;;;;;;;5.10;3.98;;;;;;;10.78;56.70;100597.73;1751602;80;21159;-67
2021/03/03 00:11:28;;;;;;;5.25;3.95;;;;;;;10.78;56.70;100599.56;1759203;80;21131;-66
2021/03/03 00:13:56;;;;;;;5.30;4.53;;;;;;;10.77;56.71;100597.87;1750459;80;21178;-67
2021/03/03 00:16:23;;;;;;;5.90;4.33;;;;;;;10.77;56.70;100601.86;1758980;80;21386;-66
2021/03/03 00:18:51;;;;;;;5.20;4.17;;;;;;;10.77;56.70;100605.84;1752815;80;21135;-68
2021/03/03 00:21:18;;;;;;;5.42;4.08;;;;;;;10.76;56.69;100608.17;1751028;80;21204;-66
2021/03/03 00:23:46;;;;;;;5.53;4.37;;;;;;;10.75;56.68;100608.64;1763959;81;21194;-65
2021/03/03 00:26:13;;;;;;;4.60;3.77;;;;;;;10.75;56.68;100608.64;1746470;82;22153;-66
2021/03/03 00:28:41;;;;;;;4.95;3.90;;;;;;;10.75;56.69;100608.64;1731004;81;21393;-66
2021/03/03 00:31:08;;;;;;;5.85;4.62;;;;;;;10.75;56.68;100615.78;1764608;81;21172;-67
2021/03/03 00:33:36;;;;;;;5.55;4.40;;;;;;;10.75;56.68;100613.13;1748439;82;21145;-66
2021/03/03 00:36:05;;;;;;;5.42;3.75;;;;;;;10.74;56.67;100616.28;1755972;80;21181;-66
2021/03/03 00:38:32;;;;;;;6.28;4.47;;;;;;;10.73;56.66;100617.26;1738755;81;21157;-67
2021/03/03 00:40:59;;;;;;;4.80;3.72;;;;;;;10.73;56.64;100614.60;1757208;80;21379;-67
2021/03/03 00:43:26;;;;;;;4.25;3.62;;;;;;;10.72;56.63;100614.27;1750284;80;21170;-67
2021/03/03 00:45:54;;;;;;;5.10;3.90;;;;;;;10.71;56.65;100605.94;1713495;82;21198;-66
2021/03/03 00:48:22;;;;;;;6.08;4.05;;;;;;;10.71;56.63;100611.25;1762234;81;21176;-66
2021/03/03 00:50:50;;;;;;;5.58;4.22;;;;;;;10.71;56.63;100610.42;1758433;80;21134;-67
2021/03/03 00:53:17;;;;;;;5.00;3.67;;;;;;;10.71;56.63;100612.59;1762053;81;21462;-67
2021/03/03 00:55:51;;;;;;;4.70;3.60;;;;;;;10.71;56.63;100611.75;1763944;81;21175;-66
2021/03/03 00:58:20;;;;;;;4.30;3.30;;;;;;;10.70;56.60;100618.04;1762081;79;21153;-66
2021/03/03 01:00:52;;;;;;;4.55;3.72;;;;;;;10.69;56.60;100618.54;1756567;81;21190;-66
2021/03/03 01:03:20;;;;;;;5.22;4.00;;;;;;;10.69;56.62;100616.38;1762238;79;21115;-66
2021/03/03 01:05:50;;;;;;;4.55;3.70;;;;;;;10.68;56.60;100618.21;1762878;79;21386;-66
2021/03/03 01:08:18;;;;;;;5.12;3.40;;;;;;;10.67;56.60;100627.16;1763280;81;21179;-66
2021/03/03 01:10:45;;;;;;;4.10;3.42;;;;;;;10.67;56.61;100624.50;1762241;79;21120;-67
2021/03/03 01:13:15;;;;;;;5.42;3.50;;;;;;;10.66;56.61;100626.80;1757860;79;21137;-66
2021/03/03 01:15:42;;;;;;;4.22;3.22;;;;;;;10.66;56.60;100632.61;1763326;81;21189;-67
2021/03/03 01:18:11;;;;;;;4.97;4.05;;;;;;;10.65;56.61;100638.42;1756357;79;21379;-66
2021/03/03 01:20:39;;;;;;;4.85;3.33;;;;;;;10.63;56.60;100625.77;1762456;79;21208;-65
2021/03/03 01:23:07;;;;;;;4.28;3.50;;;;;;;10.65;56.62;100630.95;1762037;79;21134;-66
2021/03/03 01:25:35;;;;;;;5.17;4.08;;;;;;;10.65;56.61;100641.58;1762334;81;21583;-66
2021/03/03 01:28:03;;;;;;;5.05;4.20;;;;;;;10.64;56.61;100643.38;1762202;81;21137;-67
2021/03/03 01:30:30;;;;;;;5.30;4.08;;;;;;;10.64;56.58;100644.70;1740146;79;21600;-65
2021/03/03 01:32:58;;;;;;;4.42;3.80;;;;;;;10.63;56.59;100632.42;1752837;79;21598;-66
2021/03/03 01:35:26;;;;;;;5.87;3.87;;;;;;;10.63;56.58;100637.73;1762632;81;21199;-67
2021/03/03 01:37:53;;;;;;;4.58;3.65;;;;;;;10.62;56.60;100646.67;1756491;79;21134;-67
2021/03/03 01:40:20;;;;;;;4.65;3.80;;;;;;;10.62;56.58;100653.32;1747646;81;21169;-67
2021/03/03 01:42:48;;;;;;;5.28;4.05;;;;;;;10.61;56.57;100648.50;1759990;79;21361;-66
2021/03/03 01:45:15;;;;;;;4.05;3.55;;;;;;;10.60;56.58;100644.19;1755163;79;21164;-68
2021/03/03 01:47:43;;;;;;;5.00;3.70;;;;;;;10.61;56.57;100646.34;1762400;79;21194;-67
2021/03/03 01:50:12;;;;;;;4.15;3.45;;;;;;;10.61;56.58;100651.66;1760822;79;21136;-67
2021/03/03 01:52:41;;;;;;;4.42;3.52;;;;;;;10.60;56.55;100650.83;1763045;79;21293;-66
2021/03/03 01:55:10;;;;;;;4.05;3.33;;;;;;;10.59;56.55;100645.66;1754168;79;21444;-66
2021/03/03 01:57:38;;;;;;;5.25;3.58;;;;;;;10.58;56.59;100642.14;1759816;79;21193;-66
2021/03/03 02:00:07;;;;;;;4.37;3.35;;;;;;;10.58;56.56;100643.97;1734417;81;21203;-67
2021/03/03 02:02:45;;;;;;;5.10;3.83;;;;;;;10.61;56.57;100640.53;1786979;78;28326;-67
2021/03/03 02:05:15;;;;;;;3.92;3.17;;;;;;;10.57;56.54;100650.28;1786732;78;22029;-67
2021/03/03 02:08:30;;;;;;;4.75;3.62;;;;;;;10.56;56.55;100648.09;1771234;79;21441;-67
2021/03/03 02:11:09;;;;;;;3.58;3.22;;;;;;;10.57;56.53;100650.28;1751263;80;21323;-67
2021/03/03 02:13:52;;;;;;;4.22;3.17;;;;;;;10.53;56.56;100657.70;1718635;79;21127;-67
2021/03/03 02:16:20;;;;;;;3.98;3.25;;;;;;;10.53;56.58;100658.20;1738495;80;21147;-67
2021/03/03 02:18:47;;;;;;;4.75;3.50;;;;;;;10.52;56.57;100657.34;1793590;78;21433;-68
2021/03/03 02:21:36;;;;;;;4.83;3.72;;;;;;;10.52;56.57;100665.81;1770819;79;21344;-67
2021/03/03 02:24:18;;;;;;;3.95;3.55;;;;;;;10.53;56.57;100659.53;1779035;78;21497;-67
2021/03/03 02:26:46;;;;;;;4.30;2.98;;;;;;;10.51;56.54;100664.98;1709287;81;21124;-67
2021/03/03 02:31:14;;;;;;;4.30;3.52;;;;;;;10.56;56.54;100672.00;1771164;79;28700;-67
2021/03/03 02:33:42;;;;;;;4.70;3.83;;;;;;;10.47;56.57;100670.24;1726299;80;21173;-66
2021/03/03 02:36:13;;;;;;;5.53;4.08;;;;;;;10.49;56.56;100680.70;1758026;79;22170;-67
2021/03/03 02:38:41;;;;;;;4.58;3.70;;;;;;;10.50;56.54;100685.05;1796340;77;21126;-66
2021/03/03 02:41:09;;;;;;;3.70;3.30;;;;;;;10.50;56.50;100685.05;1794704;79;21134;-65
2021/03/03 02:43:37;;;;;;;4.53;3.67;;;;;;;10.49;56.50;100693.52;1794999;79;21511;-65
2021/03/03 02:46:05;;;;;;;4.37;3.37;;;;;;;10.50;56.47;100692.52;1750685;79;21178;-66
2021/03/03 02:48:33;;;;;;;4.42;3.37;;;;;;;10.51;56.48;100698.69;1757742;81;21371;-66
2021/03/03 02:51:00;;;;;;;4.03;3.62;;;;;;;10.51;56.46;100701.34;1756916;81;21654;-69
2021/03/03 02:53:28;;;;;;;4.12;3.22;;;;;;;10.50;56.45;100697.00;1745754;81;21119;-67
2021/03/03 02:55:55;;;;;;;4.22;3.22;;;;;;;10.51;56.44;100707.99;1755327;79;21131;-67
2021/03/03 02:58:23;;;;;;;3.75;3.33;;;;;;;10.50;56.44;100708.95;1753380;79;21667;-67
2021/03/03 03:00:55;;;;;;;4.25;3.52;;;;;;;10.50;56.42;100708.95;1753653;79;21391;-65
2021/03/03 03:03:50;;;;;;;3.83;3.12;;;;;;;10.50;56.39;100712.44;1748400;81;21171;-66
2021/03/03 03:06:38;;;;;;;3.80;3.00;;;;;;;10.49;56.40;100711.25;1750495;81;21185;-65
2021/03/03 03:09:23;;;;;;;4.80;3.65;;;;;;;10.47;56.42;100711.89;1757553;79;21602;-66
2021/03/03 03:12:08;;;;;;;3.98;3.10;;;;;;;10.45;56.42;100715.18;1749649;81;21154;-66
2021/03/03 03:14:54;;;;;;;4.03;3.27;;;;;;;10.43;56.44;100720.16;1757465;81;21198;-66
2021/03/03 03:17:21;;;;;;;3.62;3.02;;;;;;;10.42;56.46;100715.81;1752158;81;21118;-67
2021/03/03 03:19:50;;;;;;;3.90;3.47;;;;;;;10.42;56.47;100714.98;1741885;81;21155;-66
2021/03/03 03:22:18;;;;;;;4.15;3.70;;;;;;;10.42;56.45;100716.31;1739790;79;21583;-67
2021/03/03 03:24:45;;;;;;;4.37;3.45;;;;;;;10.42;56.44;100724.28;1758344;79;21156;-66
2021/03/03 03:27:13;;;;;;;4.80;3.75;;;;;;;10.42;56.43;100720.30;1761302;79;21241;-68
2021/03/03 03:29:41;;;;;;;5.05;3.67;;;;;;;10.42;56.41;100726.94;1729901;81;21619;-69
2021/03/03 03:32:10;;;;;;;3.58;3.12;;;;;;;10.42;56.42;100723.78;1743801;80;21164;-67
2021/03/03 03:34:38;;;;;;;4.53;3.35;;;;;;;10.42;56.39;100723.78;1763664;79;21183;-68
2021/03/03 03:37:07;;;;;;;4.47;3.60;;;;;;;10.42;56.38;100727.77;1721877;81;21208;-68
2021/03/03 03:39:35;;;;;;;4.25;3.35;;;;;;;10.43;56.38;100720.66;1744669;81;21188;-67
2021/03/03 03:42:03;;;;;;;3.62;3.08;;;;;;;10.42;56.34;100714.98;1730481;80;21162;-67
2021/03/03 03:44:31;;;;;;;4.20;3.62;;;;;;;10.43;56.33;100720.66;1745930;81;21555;-67
2021/03/03 03:46:59;;;;;;;3.55;3.15;;;;;;;10.43;56.32;100719.34;1752163;81;21173;-67
2021/03/03 03:49:27;;;;;;;3.62;2.87;;;;;;;10.43;56.30;100721.49;1745156;79;21206;-66
2021/03/03 03:51:54;;;;;;;4.42;3.65;;;;;;;10.42;56.29;100715.81;1745254;81;21373;-66
2021/03/03 03:54:21;;;;;;;4.47;3.15;;;;;;;10.42;56.28;100715.81;1740039;81;21155;-67
2021/03/03 03:56:49;;;;;;;4.10;3.37;;;;;;;10.41;56.26;100722.13;1740501;79;21130;-67
2021/03/03 03:59:16;;;;;;;4.47;3.62;;;;;;;10.42;56.25;100719.80;1745024;81;21188;-67
2021/03/03 04:01:43;;;;;;;4.40;3.00;;;;;;;10.41;56.25;100723.45;1744512;81;21161;-68
2021/03/03 04:04:11;;;;;;;4.58;3.17;;;;;;;10.41;56.25;100728.77;1762810;79;21233;-67
2021/03/03 04:06:39;;;;;;;4.60;3.25;;;;;;;10.41;56.23;100724.78;1751663;79;21158;-67
2021/03/03 04:09:10;;;;;;;3.60;3.08;;;;;;;10.41;56.22;100730.09;1742729;81;21178;-67
2021/03/03 04:11:37;;;;;;;4.00;3.35;;;;;;;10.40;56.18;100728.41;1741301;81;21162;-67
2021/03/03 04:14:10;;;;;;;4.28;3.50;;;;;;;10.40;56.18;100729.73;1740156;79;21233;-67
2021/03/03 04:16:36;;;;;;;3.85;2.87;;;;;;;10.40;56.18;100733.72;1749657;80;21369;-67
2021/03/03 04:19:04;;;;;;;4.17;3.58;;;;;;;10.40;56.18;100736.88;1751730;81;21198;-67
2021/03/03 04:21:31;;;;;;;3.72;3.12;;;;;;;10.38;56.18;100730.38;1750296;79;21182;-66
2021/03/03 04:23:59;;;;;;;3.52;2.80;;;;;;;10.37;56.18;100740.66;1764787;80;21122;-67
2021/03/03 04:26:26;;;;;;;4.55;3.25;;;;;;;10.39;56.18;100735.19;1750532;81;21151;-67
2021/03/03 04:28:54;;;;;;;4.35;2.85;;;;;;;10.38;56.17;100742.82;1757027;79;21336;-67
2021/03/03 04:31:21;;;;;;;3.60;2.92;;;;;;;10.38;56.16;100746.80;1751280;79;21217;-66
2021/03/03 04:33:49;;;;;;;4.37;3.52;;;;;;;10.38;56.16;100748.13;1750854;79;21129;-68
2021/03/03 04:36:16;;;;;;;4.40;3.37;;;;;;;10.37;56.14;100751.75;1753844;79;21137;-66
2021/03/03 04:38:43;;;;;;;4.78;3.45;;;;;;;10.37;56.13;100750.42;1750193;79;21622;-66
2021/03/03 04:41:11;;;;;;;3.58;2.92;;;;;;;10.38;56.14;100758.76;1756691;79;22125;-65
2021/03/03 04:43:39;;;;;;;4.12;3.00;;;;;;;10.36;56.13;100752.25;1761278;80;21141;-68
2021/03/03 04:46:07;;;;;;;4.95;3.70;;;;;;;10.35;56.12;100749.27;1754738;79;21566;-67
2021/03/03 04:48:35;;;;;;;4.75;2.90;;;;;;;10.36;56.12;100756.73;1750711;80;21626;-68
2021/03/03 04:51:03;;;;;;;4.00;3.30;;;;;;;10.35;56.12;100757.23;1764266;80;21178;-67
2021/03/03 04:53:30;;;;;;;3.80;3.05;;;;;;;10.35;56.08;100768.33;1751958;80;21169;-67
2021/03/03 04:55:57;;;;;;;4.35;2.90;;;;;;;10.35;56.09;100771.84;1755050;80;21341;-67
2021/03/03 04:58:26;;;;;;;3.95;2.98;;;;;;;10.35;56.09;100776.30;1768718;80;21170;-67
2021/03/03 05:00:53;;;;;;;5.15;3.52;;;;;;;10.35;56.07;100775.83;1758774;79;21511;-67
2021/03/03 05:03:22;;;;;;;3.95;2.70;;;;;;;10.35;56.05;100779.81;1747090;80;21169;-68
2021/03/03 05:05:50;;;;;;;4.33;3.22;;;;;;;10.35;56.06;100782.94;1751945;80;22872;-67
2021/03/03 05:08:18;;;;;;;4.78;3.40;;;;;;;10.34;56.06;100791.40;1756866;80;21599;-67
2021/03/03 05:10:46;;;;;;;3.50;3.20;;;;;;;10.35;56.05;100789.58;1752051;80;21165;-67
2021/03/03 05:13:15;;;;;;;4.53;3.77;;;;;;;10.35;56.05;100791.77;1750132;80;21850;-68
2021/03/03 05:15:43;;;;;;;3.45;3.08;;;;;;;10.35;56.04;100794.42;1759200;80;21182;-67
2021/03/03 05:18:11;;;;;;;4.42;2.98;;;;;;;10.35;56.01;100801.06;1764047;79;21436;-66
2021/03/03 05:20:39;;;;;;;4.47;3.00;;;;;;;10.35;56.01;100799.73;1756275;80;21137;-67
2021/03/03 05:23:07;;;;;;;4.12;3.30;;;;;;;10.35;56.00;100809.03;1775013;79;21508;-67
2021/03/03 05:25:34;;;;;;;4.67;3.50;;;;;;;10.37;56.00;100807.53;1781037;80;21217;-67
2021/03/03 05:28:02;;;;;;;4.28;3.25;;;;;;;10.37;55.98;100805.73;1769283;80;21129;-67
2021/03/03 05:30:29;;;;;;;4.65;3.58;;;;;;;10.38;55.97;100812.72;1761336;80;21357;-67
2021/03/03 05:32:57;;;;;;;3.22;2.90;;;;;;;10.39;55.97;100816.20;1773571;80;21142;-67
2021/03/03 05:35:25;;;;;;;4.25;3.12;;;;;;;10.39;55.95;100811.75;1765603;79;21141;-67
2021/03/03 05:37:52;;;;;;;4.62;3.25;;;;;;;10.41;55.92;100822.20;1762152;80;21824;-67
2021/03/03 05:40:19;;;;;;;4.28;3.27;;;;;;;10.42;55.93;100825.23;1764321;80;21624;-68
2021/03/03 05:42:48;;;;;;;4.65;3.22;;;;;;;10.42;55.90;100824.73;1769537;80;21654;-66
2021/03/03 05:45:17;;;;;;;3.98;3.20;;;;;;;10.44;55.86;100828.58;1763115;80;21163;-65
2021/03/03 05:47:45;;;;;;;5.25;3.58;;;;;;;10.45;55.85;100832.07;1776274;80;21201;-67
2021/03/03 05:50:14;;;;;;;4.03;3.25;;;;;;;10.47;55.85;100830.11;1764389;80;21180;-65
2021/03/03 05:52:42;;;;;;;4.25;3.45;;;;;;;10.48;55.82;100827.31;1754728;80;21570;-64
2021/03/03 05:55:11;;;;;;;3.80;3.40;;;;;;;10.49;55.80;100825.48;1774729;80;21468;-65
2021/03/03 05:57:39;;;;;;;5.05;3.22;;;;;;;10.51;55.80;100836.84;1777215;80;21157;-66
2021/03/03 06:00:08;;;;;;;3.62;3.22;;;;;;;10.50;55.78;100839.97;1778079;80;21647;-67
2021/03/03 06:02:37;;;;;;;4.33;3.05;;;;;;;10.52;55.77;100837.17;1777459;80;21209;-65
2021/03/03 06:05:07;;;;;;;4.10;3.60;;;;;;;10.55;55.74;100846.20;1778834;80;21161;-67
2021/03/03 06:07:34;;;;;;;4.25;3.25;;;;;;;10.56;55.68;100840.73;1778473;80;21358;-66
2021/03/03 06:10:01;;;;;;;5.37;3.52;;;;;;;10.59;55.69;100846.27;1778989;80;21114;-66
2021/03/03 06:12:29;;;;;;;4.58;3.22;;;;;;;10.62;55.64;100848.62;1766195;80;21159;-66
2021/03/03 06:14:58;;;;;;;5.45;3.25;;;;;;;10.63;55.61;100853.80;1777750;80;21158;-66
2021/03/03 06:17:25;;;;;;;4.65;3.50;;;;;;;10.67;55.59;100857.02;1769743;79;21562;-66
2021/03/03 06:19:52;;;;;;;3.85;3.25;;;;;;;10.69;55.56;100848.42;1735303;80;21190;-65
2021/03/03 06:22:28;;;;;;;3.75;3.08;;;;;;;10.69;55.52;100845.76;1762373;79;21178;-65
2021/03/03 06:24:56;;;;;;;4.50;3.10;;;;;;;10.73;55.48;100842.33;1762447;80;21166;-66
2021/03/03 06:27:25;;;;;;;5.72;3.50;;;;;;;10.75;55.46;100843.86;1764946;79;21654;-65
2021/03/03 06:30:11;;;;;;;4.03;3.42;;;;;;;10.77;55.47;100845.05;1767260;79;21189;-66
2021/03/03 06:33:08;;;;;;;4.03;3.20;;;;;;;10.80;55.43;100848.27;1752001;79;21261;-68
2021/03/03 06:35:42;;;;;;;4.97;3.22;;;;;;;10.80;55.41;100840.80;1758574;79;21153;-66
2021/03/03 06:38:12;;;;;;;4.78;3.15;;;;;;;10.81;55.41;100840.63;1750790;79;21210;-67
2021/03/03 06:41:00;;;;;;;3.95;2.85;;;;;;;10.82;55.42;100842.81;1747697;80;21153;-67
2021/03/03 06:43:29;;;;;;;4.90;3.55;;;;;;;10.84;55.42;100848.83;1751864;80;21202;-65
2021/03/03 06:45:59;;;;;;;3.52;3.22;;;;;;;10.86;55.41;100846.03;1748233;80;21342;-66
2021/03/03 06:48:41;;;;;;;5.35;3.42;;;;;;;10.90;55.39;100844.77;1750817;80;21429;-66
2021/03/03 06:51:32;;;;;;;4.47;3.47;;;;;;;10.91;55.36;100845.92;1734125;81;21077;-66
2021/03/03 06:54:01;;;;;;;4.20;3.45;;;;;;;10.94;55.35;100842.98;1762698;80;21130;-66
2021/03/03 06:56:40;;;;;;;4.92;3.75;;;;;;;10.95;55.33;100841.16;1744418;80;21170;-68
2021/03/03 06:59:29;;;;;;;4.95;3.50;;;;;;;10.97;55.28;100844.52;1748214;80;22321;-68
2021/03/03 07:01:59;;;;;;;3.95;3.10;;;;;;;11.01;55.28;100851.25;1763702;80;21127;-66
2021/03/03 07:04:34;;;;;;;3.87;3.30;;;;;;;11.04;55.26;100848.78;1748923;80;21145;-67
2021/03/03 07:07:13;;;;;;;3.30;2.98;;;;;;;11.07;55.24;100853.79;1752235;80;21155;-67
2021/03/03 07:10:00;;;;;;;4.55;3.42;;;;;;;11.09;55.19;100856.67;1760132;80;21166;-66
2021/03/03 07:12:30;;;;;;;3.95;3.40;;;;;;;11.11;55.15;100856.03;1756575;80;21380;-66
2021/03/03 07:15:06;;;;;;;3.30;3.00;;;;;;;11.15;55.12;100858.75;1757089;80;21169;-67
2021/03/03 07:17:38;;;;;;;3.80;2.80;;;;;;;11.17;55.11;100856.78;1753031;80;22052;-66
2021/03/03 07:20:16;;;;;;;4.08;2.85;;;;;;;11.20;55.07;100863.16;1759015;80;21173;-66
2021/03/03 07:22:50;;;;;;;3.85;3.40;;;;;;;11.23;55.04;100857.20;1756997;80;21161;-66
2021/03/03 07:25:20;;;;;;;4.03;3.12;;;;;;;11.27;55.00;100857.25;1776856;80;21705;-67
2021/03/03 07:27:48;;;;;;;5.08;3.25;;;;;;;11.30;54.96;100859.60;1747953;80;21186;-65
2021/03/03 07:30:24;;;;;;;5.12;3.67;;;;;;;11.33;54.95;100860.66;1769630;80;21284;-65
2021/03/03 07:32:52;;;;;;;4.25;3.55;;;;;;;11.37;54.89;100862.03;1777629;80;21158;-62
2021/03/03 07:35:22;;;;;;;4.35;3.20;;;;;;;11.40;54.84;100857.77;1757843;80;21167;-67
2021/03/03 07:37:53;;;;;;;3.60;3.08;;;;;;;11.43;54.81;100859.28;1769541;80;21547;-66
2021/03/03 07:40:27;;;;;;;3.80;2.83;;;;;;;11.46;54.75;100862.50;1772436;80;21130;-66
2021/03/03 07:42:56;;;;;;;4.17;2.92;;;;;;;11.48;54.71;100854.37;1774761;79;21137;-65
2021/03/03 07:45:38;;;;;;;3.85;3.02;;;;;;;11.52;54.66;100857.08;1761344;80;21676;-67
2021/03/03 07:48:10;;;;;;;4.33;3.77;;;;;;;11.55;54.64;100860.77;1772921;80;21102;-66
2021/03/03 07:50:39;;;;;;;3.35;3.00;;;;;;;11.58;54.59;100863.97;1769546;80;22279;-66
2021/03/03 07:53:08;;;;;;;4.58;3.30;;;;;;;11.60;54.57;100863.83;1772688;80;21189;-65
2021/03/03 07:55:36;;;;;;;3.87;3.25;;;;;;;11.65;54.56;100868.70;1772634;80;21491;-66
2021/03/03 07:58:06;;;;;;;4.80;3.70;;;;;;;11.67;54.50;100875.58;1748014;80;21212;-68
2021/03/03 08:00:35;;;;;;;5.10;3.55;;;;;;;11.70;54.42;100867.27;1750202;80;21102;-67
2021/03/03 08:03:05;;;;;;;4.12;3.02;;;;;;;11.73;54.39;100863.00;1776033;80;21333;-66
2021/03/03 08:05:38;;;;;;;3.90;3.15;;;;;;;11.76;54.35;100867.17;1771440;80;21641;-65
2021/03/03 08:08:23;;;;;;;4.53;3.12;;;;;;;11.79;54.31;100862.90;1766124;80;21169;-65
2021/03/03 08:11:01;;;;;;;3.92;3.17;;;;;;;11.83;54.28;100866.94;1764750;80;21555;-64
2021/03/03 08:13:36;;;;;;;3.87;3.10;;;;;;;11.86;54.22;100860.47;1770116;80;21197;-66
2021/03/03 08:16:04;;;;;;;;;;;;;;;11.88;54.17;100862.02;1772944;80;21335;-66
2021/03/03 08:18:51;;;;;;;4.37;3.00;;;;;;;11.92;54.11;100865.25;1727753;80;20269;-65
2021/03/03 08:21:25;;;;;;;3.47;2.60;;;;;;;11.87;54.21;100858.99;1707523;83;21506;-65
2021/03/03 08:23:59;;;;;;;4.70;3.35;;;;;;;11.93;54.21;100862.91;1725150;82;21192;-63
2021/03/03 08:26:33;;;;;;;3.67;3.20;;;;;;;11.97;54.19;100862.45;1718263;82;21574;-65
2021/03/03 08:29:26;;;;;;;4.35;3.17;;;;;;;12.01;54.18;100860.33;1723068;82;21401;-66
2021/03/03 08:31:55;;;;;;;4.30;3.20;;;;;;;12.06;54.17;100858.06;1727115;81;21146;-65
2021/03/03 08:34:23;;;;;;;4.62;3.17;;;;;;;12.11;54.15;100861.13;1749677;80;21162;-65
2021/03/03 08:36:54;;;;;;;3.30;2.80;;;;;;;12.15;54.17;100852.34;1732671;81;21180;-67
2021/03/03 08:39:24;;;;;;;5.60;2.98;;;;;;;12.22;54.18;100857.39;1737691;82;21617;-66
2021/03/03 08:41:52;;;;;;;5.28;3.20;;;;;;;12.27;54.17;100855.12;1770363;80;21359;-66
2021/03/03 08:44:19;;;;;;;4.67;3.20;;;;;;;12.33;54.18;100851.02;1775124;80;21123;-65
2021/03/03 08:46:49;;;;;;;3.40;3.10;;;;;;;12.38;54.18;100848.70;1771574;80;21353;-64
2021/03/03 08:49:25;;;;;;;3.95;3.12;;;;;;;12.44;54.13;100841.93;1766636;80;21142;-65
2021/03/03 08:52:09;;;;;;;4.50;2.75;;;;;;;12.50;54.08;100834.67;1766815;80;21158;-65
2021/03/03 08:54:41;;;;;;;5.92;3.37;;;;;;;12.56;54.05;100836.72;1770548;80;22143;-68
2021/03/03 08:57:31;;;;;;;5.08;3.15;;;;;;;12.62;54.00;100845.94;1767091;80;21221;-63
2021/03/03 08:59:59;;;;;;;4.40;3.33;;;;;;;12.68;54.01;100846.14;1756433;80;21134;-64
2021/03/03 09:02:37;;;;;;;3.40;3.00;;;;;;;12.74;54.00;100847.34;1761426;80;21153;-68
2021/03/03 09:05:11;;;;;;;4.30;3.25;;;;;;;12.80;54.03;100842.72;1772703;80;21130;-66
2021/03/03 09:07:38;;;;;;;3.52;2.95;;;;;;;12.87;53.98;100847.78;1765200;80;21649;-64
2021/03/03 09:10:18;;;;;;;4.12;2.98;;;;;;;12.95;53.96;100847.00;1759496;79;21205;-64
2021/03/03 09:12:46;;;;;;;5.47;3.70;;;;;;;13.02;53.96;100849.39;1763652;80;21169;-65
2021/03/03 09:15:15;;;;;;;3.33;2.77;;;;;;;13.10;53.98;100852.10;1755022;80;21177;-66
2021/03/03 09:17:44;;;;;;;3.55;2.72;;;;;;;13.19;53.95;100854.30;1769297;80;21106;-65
2021/03/03 09:20:16;;;;;;;3.47;2.90;;;;;;;13.27;53.93;100850.84;1753752;80;21611;-64
2021/03/03 09:22:46;;;;;;;3.65;2.72;;;;;;;13.37;53.89;100859.63;1774943;80;21189;-65
2021/03/03 09:25:21;;;;;;;3.75;2.87;;;;;;;13.46;53.80;100857.34;1770686;79;21194;-67
2021/03/03 09:27:57;;;;;;;3.77;2.87;;;;;;;13.55;53.71;100852.86;1768899;79;21662;-67
2021/03/03 09:30:28;;;;;;;4.12;2.98;;;;;;;13.65;53.69;100852.73;1770394;80;21165;-65
2021/03/03 09:32:56;;;;;;;3.12;2.72;;;;;;;13.76;53.85;100856.45;1761446;80;22262;-66
2021/03/03 09:35:30;;;;;;;4.35;2.90;;;;;;;13.87;53.93;100859.30;1754918;80;21178;-66
2021/03/03 09:37:58;;;;;;;3.95;3.30;;;;;;;13.98;53.96;100855.51;1774206;80;21178;-65
2021/03/03 09:40:33;;;;;;;4.03;3.00;;;;;;;14.09;53.87;100855.20;1759609;80;21149;-65
2021/03/03 09:43:01;;;;;;;4.22;2.87;;;;;;;14.21;53.76;100851.20;1757773;80;21095;-66
2021/03/03 09:45:29;;;;;;;3.92;2.90;;;;;;;14.33;53.51;100857.06;1756632;79;22132;-64
2021/03/03 09:47:57;;;;;;;3.20;2.87;;;;;;;14.44;53.29;100855.41;1777216;80;21138;-65
2021/03/03 09:53:06;;;;;;;3.20;2.60;;;;;;;14.74;52.86;100841.91;1797999;77;28252;-67
2021/03/03 09:55:35;;;;;;;3.40;2.75;;;;;;;14.85;52.60;100850.59;1807573;77;21129;-66
2021/03/03 09:58:03;;;;;;;4.33;3.08;;;;;;;14.97;52.37;100838.55;1792392;77;21470;-67
2021/03/03 10:00:39;;;;;;;4.45;2.87;;;;;;;15.10;52.22;100838.00;1777415;78;21654;-65
2021/03/03 10:03:14;;;;;;;5.75;3.20;;;;;;;15.25;52.08;100840.81;1798806;78;21191;-65
2021/03/03 10:05:42;;;;;;;3.15;2.50;;;;;;;15.39;52.10;100836.58;1785637;78;21249;-67
2021/03/03 10:08:14;;;;;;;3.50;2.87;;;;;;;15.52;52.00;100824.82;1767858;78;21691;-65
2021/03/03 10:10:48;;;;;;;3.90;3.10;;;;;;;15.65;51.96;100822.93;1781112;79;22282;-67
2021/03/03 10:13:24;;;;;;;3.47;2.87;;;;;;;15.79;51.77;100824.88;1799152;78;21007;-66
2021/03/03 10:15:54;;;;;;;3.62;2.92;;;;;;;15.94;51.61;100822.81;1759918;79;21166;-66
2021/03/03 10:18:22;;;;;;;3.80;2.90;;;;;;;16.07;51.36;100819.02;1776460;78;21130;-66
2021/03/03 10:20:55;;;;;;;3.50;3.20;;;;;;;16.22;51.22;100823.11;1807143;78;21148;-63
2021/03/03 10:23:25;;;;;;;3.35;2.85;;;;;;;16.35;50.92;100825.20;1772615;79;21204;-64
2021/03/03 10:26:03;;;;;;;3.40;2.70;;;;;;;16.47;50.76;100817.88;1787562;79;21596;-67
2021/03/03 10:28:30;;;;;;;2.95;2.20;;;;;;;16.60;50.73;100814.59;1788630;78;21158;-65
2021/03/03 10:31:01;;;;;;;3.33;2.37;;;;;;;16.74;50.51;100806.75;1810593;78;21177;-64
2021/03/03 10:33:36;;;;;;;3.70;2.27;;;;;;;16.87;50.44;100815.05;1808931;78;21141;-64
2021/03/03 10:36:09;;;;;;;3.10;2.72;;;;;;;17.01;50.29;100810.19;1794842;77;21194;-63
2021/03/03 10:41:32;;;;;;;3.10;2.62;;;;;;;17.37;50.17;100803.26;1762802;79;28608;-63
2021/03/03 10:44:04;;;;;;;3.52;2.30;;;;;;;17.46;49.97;100801.62;1708515;81;21127;-65
2021/03/03 10:46:33;;;;;;;3.10;2.33;;;;;;;17.61;49.88;100802.92;1745565;80;21188;-65
2021/03/03 10:49:15;;;;;;;3.55;2.80;;;;;;;17.75;49.84;100802.59;1762409;81;21599;-64
2021/03/03 10:51:44;;;;;;;2.80;2.40;;;;;;;17.90;49.50;100793.67;1757624;79;21611;-65
2021/03/03 10:54:33;;;;;;;3.85;2.17;;;;;;;18.04;49.28;100790.94;1745511;81;21252;-65
2021/03/03 10:57:10;;;;;;;2.55;2.30;;;;;;;18.19;49.28;100791.38;1746085;79;21210;-65
2021/03/03 10:59:38;;;;;;;2.65;2.02;;;;;;;18.34;49.33;100788.09;1760399;81;21375;-66
2021/03/03 11:02:06;;;;;;;2.98;2.42;;;;;;;18.50;49.18;100791.54;1763492;79;21165;-62
2021/03/03 11:04:44;;;;;;;10.50;5.05;;;;;;;18.65;49.29;100745.19;1761567;81;21179;-61
2021/03/03 11:07:13;;;;;;;8.63;5.60;;;;;;;18.93;53.91;100777.50;1745578;81;21149;-61
2021/03/03 11:09:53;;;;;;;6.10;4.70;;;;;;;19.39;56.59;100766.14;1750731;81;21170;-61
2021/03/03 11:12:25;;;;;;;11.55;5.53;;;;;;;19.98;56.41;100771.40;1749007;81;21375;-62
2021/03/03 11:14:53;;;;;;;6.83;4.85;;;;;;;20.48;55.32;100764.80;1753901;79;21658;-62
2021/03/03 11:17:21;;;;;;;8.25;4.53;;;;;;;20.92;53.90;100774.09;1739373;81;21146;-62
2021/03/03 11:19:49;;;;;;;7.40;4.85;;;;;;;21.41;52.43;100770.00;1744161;79;21176;-63
2021/03/03 11:22:16;;;;;;;5.58;4.05;;;;;;;21.99;50.84;100765.03;1753350;81;21174;-63
2021/03/03 11:24:43;;;;;;;6.15;4.10;;;;;;;22.61;49.24;100754.89;1749267;81;21456;-62
2021/03/03 11:27:11;;;;;;;7.20;4.25;;;;;;;23.25;47.58;100758.17;1741263;81;21194;-61
2021/03/03 11:29:38;;;;;;;5.03;3.90;;;;;;;23.84;46.11;100757.12;1742231;81;21547;-63
2021/03/03 11:32:08;;;;;;;4.58;3.80;;;;;;;24.42;44.82;100754.22;1779483;79;21153;-62
2021/03/03 11:34:36;;;;;;;4.30;3.52;;;;;;;24.89;43.59;100750.95;1793710;79;21593;-62
2021/03/03 11:37:04;;;;;;;4.15;3.37;;;;;;;25.18;42.58;100747.48;1800795;79;21217;-63
2021/03/03 11:39:32;;;;;;;5.15;3.83;;;;;;;25.36;41.96;100743.78;1769402;79;21823;-64
2021/03/03 11:42:00;;;;;;;4.53;3.37;;;;;;;25.45;41.38;100743.70;1737657;81;21568;-64
2021/03/03 11:44:27;;;;;;;4.22;3.47;;;;;;;25.46;41.05;100746.73;1758337;81;21159;-63
2021/03/03 11:46:56;;;;;;;3.80;3.22;;;;;;;25.44;40.67;100751.55;1763455;81;21643;-63
2021/03/03 11:49:24;;;;;;;4.80;3.70;;;;;;;25.40;40.71;100748.52;1763477;81;21216;-66